Time;durP1;ratioP1;P1;durP2;ratioP2;P2;SDS_P1;SDS_P2;PMS_P1;PMS_P2;Temp;Humidity;BMP_temperature;BMP_pressure;BME280_temperature;BME280_humidity;BME280_pressure;Samples;Min_cycle;Max_cycle;Signal;HPM_P1;HPM_P2
2022/04/19 00:00:38;;;;;;;2.57;2.47;;;10.40;78.20;;;;;;10333163;28;20249;-83
2022/04/19 00:05:41;;;;;;;2.37;2.17;;;10.40;78.90;;;;;;10340067;28;20286;-83
2022/04/19 00:10:45;;;;;;;3.17;2.70;;;10.30;79.50;;;;;;10328025;28;20203;-83
2022/04/19 00:15:48;;;;;;;2.30;2.20;;;10.30;80.10;;;;;;10376847;28;20241;-83
2022/04/19 00:20:50;;;;;;;4.03;2.57;;;10.30;79.70;;;;;;10358816;28;20222;-83
2022/04/19 00:25:54;;;;;;;2.83;2.23;;;10.30;80.10;;;;;;10344825;28;20574;-81
2022/04/19 00:30:57;;;;;;;2.07;1.97;;;10.30;81.20;;;;;;10364326;28;20618;-82
2022/04/19 00:35:59;;;;;;;2.70;2.50;;;10.30;80.60;;;;;;10337579;28;20225;-82
2022/04/19 00:41:03;;;;;;;2.73;2.53;;;10.30;81.00;;;;;;10353878;28;20265;-82
2022/04/19 00:46:05;;;;;;;2.63;2.43;;;10.20;82.10;;;;;;10338845;28;20223;-81
2022/04/19 00:51:07;;;;;;;3.23;2.97;;;10.20;81.20;;;;;;10356993;28;20249;-82
2022/04/19 00:56:12;;;;;;;3.30;3.10;;;10.20;82.30;;;;;;10345411;28;20261;-82
2022/04/19 01:01:15;;;;;;;4.40;3.43;;;10.10;82.30;;;;;;10349491;28;20249;-82
2022/04/19 01:06:18;;;;;;;3.70;3.40;;;10.10;81.70;;;;;;10347553;28;20230;-82
2022/04/19 01:16:46;;;;;;;4.33;4.03;;;9.90;84.00;;;;;;10337867;28;20253;-82
2022/04/19 01:21:50;;;;;;;4.10;3.70;;;9.90;82.60;;;;;;10378117;28;20242;-82
2022/04/19 01:27:00;;;;;;;4.77;4.17;;;9.80;83.60;;;;;;10361069;28;20273;-82
2022/04/19 01:32:05;;;;;;;4.80;4.40;;;9.80;84.90;;;;;;10348582;28;20205;-81
2022/04/19 01:37:10;;;;;;;4.00;3.80;;;9.70;83.60;;;;;;10381739;28;20253;-83
2022/04/19 01:42:13;;;;;;;4.00;3.80;;;9.70;82.90;;;;;;10349133;28;20643;-83
2022/04/19 01:47:21;;;;;;;4.17;3.73;;;9.70;83.20;;;;;;10342793;28;20295;-82
2022/04/19 01:52:27;;;;;;;4.50;3.80;;;9.60;84.80;;;;;;10347452;28;20222;-82
2022/04/19 01:57:33;;;;;;;4.20;3.90;;;9.60;85.70;;;;;;10344359;28;20416;-82
2022/04/19 02:02:35;;;;;;;4.13;3.83;;;9.60;83.50;;;;;;10355594;28;20242;-82
2022/04/19 02:07:41;;;;;;;4.23;3.80;;;9.50;82.40;;;;;;10341857;28;20195;-82
2022/04/19 02:12:44;;;;;;;4.43;3.97;;;9.40;84.90;;;;;;10341203;28;20600;-81
2022/04/19 02:18:18;;;;;;;3.90;3.60;;;9.40;85.80;;;;;;10328311;28;20205;-82
2022/04/19 02:23:25;;;;;;;3.83;3.37;;;9.30;83.40;;;;;;10346027;28;20228;-82
2022/04/19 02:28:27;;;;;;;4.00;3.80;;;9.30;83.30;;;;;;10372502;28;20574;-82
2022/04/19 02:33:49;;;;;;;4.43;4.03;;;9.20;85.70;;;;;;10353277;28;20221;-82
2022/04/19 02:38:54;;;;;;;4.30;3.93;;;9.10;84.90;;;;;;10355400;28;20219;-82
2022/04/19 02:43:59;;;;;;;4.90;3.90;;;9.10;85.40;;;;;;10344580;28;20242;-83
2022/04/19 02:49:04;;;;;;;4.60;3.63;;;9.10;85.50;;;;;;10376795;28;20195;-83
2022/04/19 02:54:07;;;;;;;4.40;4.10;;;9.10;87.00;;;;;;10355806;28;20222;-83
2022/04/19 02:59:10;;;;;;;4.90;4.50;;;9.10;86.70;;;;;;10347488;28;20207;-82
2022/04/19 03:04:13;;;;;;;3.80;3.60;;;9.10;86.20;;;;;;10355760;28;20226;-82
2022/04/19 03:09:18;;;;;;;3.83;3.53;;;9.10;87.00;;;;;;10325706;28;20195;-82
2022/04/19 03:14:23;;;;;;;3.90;3.50;;;9.10;87.50;;;;;;10315358;28;20793;-82
2022/04/19 03:19:25;;;;;;;3.60;3.30;;;9.10;85.50;;;;;;10350148;28;20215;-82
2022/04/19 03:29:49;;;;;;;4.20;3.90;;;8.90;87.10;;;;;;10335750;28;20195;-85
2022/04/19 03:34:53;;;;;;;6.10;4.03;;;9.00;86.10;;;;;;10314878;28;20249;-82
2022/04/19 03:39:57;;;;;;;4.33;4.03;;;8.90;86.80;;;;;;10354981;28;20218;-83
2022/04/19 03:44:59;;;;;;;3.50;3.30;;;8.90;85.20;;;;;;10357388;28;20215;-83
2022/04/19 03:50:02;;;;;;;3.90;3.60;;;8.90;86.60;;;;;;10342236;28;20249;-82
2022/04/19 03:55:06;;;;;;;3.97;3.77;;;8.80;86.10;;;;;;10334457;28;20233;-84
2022/04/19 04:00:11;;;;;;;4.30;3.90;;;8.80;87.80;;;;;;10333699;28;20561;-84
2022/04/19 04:05:24;;;;;;;3.30;3.10;;;8.70;87.20;;;;;;10343142;28;20233;-84
2022/04/19 04:10:28;;;;;;;4.00;3.80;;;8.80;87.30;;;;;;10362392;28;20194;-84
2022/04/19 04:15:30;;;;;;;3.70;3.40;;;8.70;86.40;;;;;;10351756;28;20253;-84
2022/04/19 04:20:33;;;;;;;4.00;3.70;;;8.70;87.40;;;;;;10334500;28;20229;-82
2022/04/19 04:25:36;;;;;;;2.90;2.80;;;8.70;87.10;;;;;;10358643;28;20226;-83
2022/04/19 04:30:39;;;;;;;4.60;4.30;;;8.70;86.60;;;;;;10328426;28;20205;-83
2022/04/19 04:35:41;;;;;;;4.40;4.10;;;8.60;87.70;;;;;;10338983;28;20215;-83
2022/04/19 04:41:10;;;;;;;4.57;4.17;;;8.60;87.50;;;;;;10336939;28;20229;-83
2022/04/19 04:51:44;;;;;;;4.40;4.10;;;8.60;87.00;;;;;;10315461;28;20559;-83
2022/04/19 04:56:48;;;;;;;4.27;3.70;;;8.70;87.80;;;;;;10335263;28;20320;-84
2022/04/19 05:01:50;;;;;;;4.97;4.47;;;8.70;86.70;;;;;;10373002;28;20219;-84
2022/04/19 05:06:53;;;;;;;4.40;4.10;;;8.60;88.20;;;;;;10341068;28;20579;-83
2022/04/19 05:11:58;;;;;;;5.93;5.10;;;8.70;87.10;;;;;;10360015;28;20210;-83
2022/04/19 05:17:07;;;;;;;4.70;4.30;;;8.60;87.90;;;;;;10364261;28;20195;-83
2022/04/19 05:22:14;;;;;;;8.93;5.00;;;8.60;88.50;;;;;;10347827;28;20225;-83
2022/04/19 05:27:18;;;;;;;4.30;4.00;;;8.70;89.70;;;;;;10347858;28;20660;-83
2022/04/19 05:32:24;;;;;;;4.70;4.03;;;8.80;89.80;;;;;;10331866;28;20223;-82
2022/04/19 05:37:27;;;;;;;5.43;4.90;;;8.80;90.50;;;;;;10364519;28;20202;-82
2022/04/19 05:42:31;;;;;;;4.77;4.17;;;8.90;90.40;;;;;;10345787;28;20261;-84
2022/04/19 05:47:33;;;;;;;7.13;5.00;;;9.00;90.20;;;;;;10345894;28;20205;-83
2022/04/19 05:52:35;;;;;;;4.90;4.40;;;9.00;90.20;;;;;;10334465;28;20215;-83
2022/04/19 05:57:41;;;;;;;6.90;5.00;;;9.10;90.30;;;;;;10316343;28;20241;-83
2022/04/19 06:08:07;;;;;;;5.63;5.10;;;9.40;90.30;;;;;;10345691;28;20698;-83
2022/04/19 06:13:11;;;;;;;6.40;5.80;;;9.50;89.50;;;;;;10354060;28;20223;-82
2022/04/19 06:18:14;;;;;;;5.13;4.40;;;9.70;89.80;;;;;;10346553;28;20191;-83
2022/04/19 06:23:23;;;;;;;6.20;5.40;;;9.80;89.80;;;;;;10362229;28;20571;-84
2022/04/19 06:28:28;;;;;;;6.80;5.30;;;10.00;87.40;;;;;;10356557;28;20204;-84
2022/04/19 06:33:49;;;;;;;5.60;5.20;;;10.10;87.20;;;;;;10370087;28;20215;-84
2022/04/19 06:38:54;;;;;;;5.70;5.17;;;10.30;87.10;;;;;;10337670;28;20210;-82
2022/04/19 06:43:59;;;;;;;5.70;5.20;;;10.50;87.30;;;;;;10333687;28;20223;-84
2022/04/19 06:49:05;;;;;;;6.00;5.40;;;10.70;87.40;;;;;;10351626;28;20654;-84
2022/04/19 06:54:09;;;;;;;6.20;5.70;;;11.00;87.10;;;;;;10342571;28;20600;-82
2022/04/19 06:59:22;;;;;;;6.55;5.75;;;11.20;86.00;;;;;;10361685;28;20201;-83
2022/04/19 07:04:24;;;;;;;9.93;6.87;;;11.30;87.90;;;;;;10339769;28;20218;-82
2022/04/19 07:09:29;;;;;;;6.67;6.00;;;11.50;88.50;;;;;;10344885;28;20206;-83
2022/04/19 07:14:34;;;;;;;6.10;5.50;;;11.60;88.10;;;;;;10343682;28;20229;-83
2022/04/19 07:30:17;;;;;;;6.70;6.10;;;11.90;88.90;;;;;;10340828;28;20191;-83
2022/04/19 07:35:19;;;;;;;7.70;6.90;;;12.10;89.10;;;;;;10355331;28;20706;-83
2022/04/19 07:40:22;;;;;;;6.23;5.73;;;12.30;89.50;;;;;;10350135;28;20284;-83
2022/04/19 07:45:26;;;;;;;6.90;6.10;;;12.50;88.80;;;;;;10359204;28;20222;-84
2022/04/19 07:50:28;;;;;;;8.40;6.40;;;12.80;88.30;;;;;;10358904;28;20187;-82
2022/04/19 07:55:31;;;;;;;8.30;6.90;;;13.10;87.70;;;;;;10358113;28;20233;-83
2022/04/19 08:00:34;;;;;;;6.90;6.30;;;13.50;86.00;;;;;;10317843;28;20231;-82
2022/04/19 08:05:37;;;;;;;8.00;7.20;;;13.90;86.20;;;;;;10337692;28;20258;-82
2022/04/19 08:10:39;;;;;;;6.97;6.33;;;14.20;82.30;;;;;;10365835;28;20199;-83
2022/04/19 08:15:45;;;;;;;7.47;5.80;;;14.50;81.00;;;;;;10373365;28;20724;-84
2022/04/19 08:20:47;;;;;;;8.00;7.03;;;14.70;81.40;;;;;;10354508;28;20210;-83
2022/04/19 08:31:15;;;;;;;5.80;5.30;;;15.20;77.60;;;;;;10341621;28;20191;-83
2022/04/19 08:36:31;;;;;;;5.60;5.20;;;15.40;79.40;;;;;;10322047;28;20262;-84
2022/04/19 08:41:35;;;;;;;6.03;4.70;;;15.60;76.80;;;;;;10359700;28;20226;-84
2022/04/19 08:46:40;;;;;;;6.93;6.13;;;15.90;75.50;;;;;;10366228;28;20225;-84
2022/04/19 08:51:48;;;;;;;7.50;6.10;;;16.20;69.30;;;;;;10346834;28;20441;-83
2022/04/19 09:02:25;;;;;;;7.23;5.93;;;16.70;71.50;;;;;;10341131;28;20218;-83
2022/04/19 09:07:37;;;;;;;5.90;5.33;;;16.90;69.60;;;;;;10353928;28;20219;-83
2022/04/19 09:12:39;;;;;;;4.20;3.90;;;17.00;68.50;;;;;;10375116;28;20215;-83
2022/04/19 09:17:49;;;;;;;6.67;4.30;;;17.10;66.60;;;;;;10360103;28;20195;-84
2022/04/19 09:23:02;;;;;;;4.93;4.53;;;17.30;64.90;;;;;;10376093;28;20219;-84
2022/04/19 09:28:15;;;;;;;5.50;4.83;;;17.50;63.50;;;;;;10351468;28;20265;-82
2022/04/19 09:33:20;;;;;;;4.97;4.57;;;17.80;62.20;;;;;;10327569;28;20238;-83
2022/04/19 09:38:37;;;;;;;6.37;3.70;;;18.10;57.60;;;;;;10328205;28;20195;-84
2022/04/19 09:43:39;;;;;;;4.70;4.40;;;18.20;61.00;;;;;;10378210;28;20225;-84
2022/04/19 09:48:44;;;;;;;4.67;4.37;;;18.60;59.80;;;;;;10333424;28;20199;-83
2022/04/19 09:53:48;;;;;;;4.50;4.10;;;18.80;59.40;;;;;;10357126;28;20215;-80
2022/04/19 09:58:53;;;;;;;4.87;4.47;;;19.10;58.30;;;;;;10351835;28;20199;-83
2022/04/19 10:09:19;;;;;;;5.07;4.67;;;19.50;58.00;;;;;;10423100;28;20201;-84
2022/04/19 10:14:22;;;;;;;5.30;4.80;;;19.60;58.40;;;;;;10404653;28;20233;-82
2022/04/19 10:19:27;;;;;;;7.10;4.80;;;19.40;58.20;;;;;;10421540;28;20194;-82
2022/04/19 10:24:29;;;;;;;4.60;4.20;;;19.10;59.00;;;;;;10422834;28;20324;-82
2022/04/19 10:29:33;;;;;;;5.63;4.37;;;18.70;56.80;;;;;;10422379;28;20217;-82
2022/04/19 10:34:37;;;;;;;4.20;3.90;;;18.40;59.40;;;;;;10421712;28;20229;-82
2022/04/19 10:39:45;;;;;;;4.37;3.93;;;18.10;57.20;;;;;;10423205;28;20205;-82
2022/04/19 10:44:50;;;;;;;5.20;3.23;;;17.80;56.00;;;;;;10423353;28;20313;-82
2022/04/19 10:50:04;;;;;;;4.00;3.70;;;17.50;55.20;;;;;;10426290;28;20202;-82
2022/04/19 10:55:09;;;;;;;3.93;3.63;;;17.30;56.10;;;;;;10420462;28;20229;-82
2022/04/19 11:00:23;;;;;;;4.50;4.10;;;17.10;57.20;;;;;;10422546;28;20216;-82
2022/04/19 11:05:42;;;;;;;4.67;4.20;;;16.90;55.80;;;;;;10423419;28;20233;-82
2022/04/19 11:10:44;;;;;;;5.27;4.83;;;16.70;57.80;;;;;;10424674;28;20202;-82
2022/04/19 11:15:57;;;;;;;5.03;4.57;;;16.60;61.20;;;;;;10432491;28;20721;-81
2022/04/19 11:21:03;;;;;;;5.23;4.80;;;16.50;58.20;;;;;;10419017;28;20218;-81
2022/04/19 11:26:08;;;;;;;4.70;4.37;;;16.40;57.90;;;;;;10419075;28;20317;-81
2022/04/19 11:31:15;;;;;;;4.97;4.17;;;16.40;58.70;;;;;;10418656;28;20182;-81
2022/04/19 11:36:20;;;;;;;4.60;4.20;;;16.30;57.40;;;;;;10408959;28;20720;-82
2022/04/19 11:46:46;;;;;;;5.20;4.70;;;16.30;60.00;;;;;;10415398;28;20205;-82
2022/04/19 11:51:52;;;;;;;5.53;4.60;;;16.30;55.20;;;;;;10416258;28;20283;-81
2022/04/19 11:56:55;;;;;;;4.60;4.30;;;16.30;55.10;;;;;;10416869;28;20210;-82
2022/04/19 12:01:58;;;;;;;5.07;4.57;;;16.20;56.90;;;;;;10414532;28;21357;-81
2022/04/19 12:07:03;;;;;;;6.07;4.97;;;16.20;58.20;;;;;;10399289;28;20729;-82
2022/04/19 12:12:08;;;;;;;4.30;4.00;;;16.20;59.90;;;;;;10416392;28;20202;-82
2022/04/19 12:17:19;;;;;;;4.90;4.50;;;16.20;55.80;;;;;;10416692;28;20268;-82
2022/04/19 12:22:23;;;;;;;5.50;4.80;;;16.20;57.70;;;;;;10411506;28;20272;-82
2022/04/19 12:27:26;;;;;;;4.60;4.20;;;16.20;57.90;;;;;;10414317;28;20201;-81
2022/04/19 12:32:49;;;;;;;12.70;5.33;;;16.20;58.20;;;;;;10413044;28;20197;-80
2022/04/19 12:38:06;;;;;;;5.93;5.07;;;16.20;56.60;;;;;;10394840;28;20228;-81
2022/04/19 12:43:09;;;;;;;4.30;3.90;;;16.20;54.90;;;;;;10409088;28;20601;-81
2022/04/19 12:48:19;;;;;;;4.00;3.70;;;16.20;57.80;;;;;;10409548;28;20206;-81
2022/04/19 12:53:26;;;;;;;5.63;4.93;;;16.20;57.40;;;;;;10418458;28;20302;-81
2022/04/19 12:58:28;;;;;;;7.03;5.60;;;16.30;55.20;;;;;;10407597;28;20201;-81
2022/04/19 13:03:30;;;;;;;5.03;4.60;;;16.30;55.90;;;;;;10411533;28;20236;-81
2022/04/19 13:13:53;;;;;;;5.43;4.93;;;16.30;58.50;;;;;;10402501;28;20700;-80
2022/04/19 13:18:55;;;;;;;5.33;4.90;;;16.30;60.90;;;;;;10408369;28;20248;-80
2022/04/19 13:23:59;;;;;;;5.50;5.10;;;16.30;56.80;;;;;;10418495;28;20305;-80
2022/04/19 13:29:01;;;;;;;5.17;4.67;;;16.40;55.10;;;;;;10418270;28;20209;-80
2022/04/19 13:34:03;;;;;;;8.37;5.27;;;16.50;56.60;;;;;;10417419;28;20237;-80
2022/04/19 13:39:06;;;;;;;5.93;5.33;;;16.50;55.30;;;;;;10415968;28;20212;-81
2022/04/19 13:44:10;;;;;;;6.60;4.13;;;16.60;57.30;;;;;;10430829;28;20240;-80
2022/04/19 13:49:14;;;;;;;5.23;4.80;;;16.60;57.40;;;;;;10418650;28;20212;-80
2022/04/19 13:54:19;;;;;;;4.90;4.40;;;16.60;56.60;;;;;;10420024;28;20249;-80
2022/04/19 13:59:22;;;;;;;6.73;4.77;;;16.60;56.10;;;;;;10422799;28;20324;-80
2022/04/19 14:04:24;;;;;;;5.07;4.67;;;16.60;58.90;;;;;;10419184;28;20693;-80
2022/04/19 14:09:28;;;;;;;5.53;5.03;;;16.70;59.00;;;;;;10415734;28;20217;-80
2022/04/19 14:14:30;;;;;;;5.17;4.77;;;16.70;57.20;;;;;;10413606;28;20289;-80
2022/04/19 14:19:32;;;;;;;5.60;4.40;;;16.70;57.50;;;;;;10415677;28;20216;-80
2022/04/19 14:24:36;;;;;;;4.33;4.03;;;16.80;57.00;;;;;;10412833;28;20243;-80
2022/04/19 14:34:58;;;;;;;5.93;5.43;;;16.90;60.70;;;;;;10420978;28;20708;-80
2022/04/19 14:40:02;;;;;;;5.07;4.57;;;17.00;58.70;;;;;;10405472;28;20209;-80
2022/04/19 14:45:06;;;;;;;5.90;5.30;;;17.00;62.90;;;;;;10425330;28;20241;-80
2022/04/19 14:50:09;;;;;;;4.83;4.43;;;17.10;61.50;;;;;;10427553;28;20265;-80
2022/04/19 14:55:13;;;;;;;6.50;4.77;;;17.20;61.30;;;;;;10423358;28;20226;-80
2022/04/19 15:00:16;;;;;;;3.93;3.63;;;17.20;60.30;;;;;;10423423;28;20209;-80
2022/04/19 15:05:18;;;;;;;7.50;4.20;;;17.20;60.40;;;;;;10414358;28;20658;-80
2022/04/19 15:10:22;;;;;;;4.30;3.53;;;17.20;60.10;;;;;;10424975;28;20194;-79
2022/04/19 15:15:24;;;;;;;4.30;3.97;;;17.20;61.10;;;;;;10429800;28;20314;-79
2022/04/19 15:20:26;;;;;;;4.00;3.70;;;17.20;64.80;;;;;;10426804;28;20213;-78
2022/04/19 15:25:30;;;;;;;4.40;4.00;;;17.10;61.70;;;;;;10410516;28;20290;-80
2022/04/19 15:30:32;;;;;;;4.60;4.30;;;17.10;64.50;;;;;;10404527;28;20208;-79
2022/04/19 15:35:34;;;;;;;4.47;4.17;;;17.10;58.20;;;;;;10411209;28;20287;-79
2022/04/19 15:40:37;;;;;;;4.30;3.90;;;17.30;57.30;;;;;;10411371;28;20194;-78
2022/04/19 15:45:40;;;;;;;3.30;3.00;;;17.60;57.20;;;;;;10426821;28;20297;-78
2022/04/19 15:50:42;;;;;;;3.97;3.67;;;17.80;55.60;;;;;;10418512;28;20543;-80
2022/04/19 15:55:46;;;;;;;4.70;4.23;;;17.70;55.60;;;;;;10409437;28;20213;-78
2022/04/19 16:00:48;;;;;;;3.77;3.47;;;17.60;56.10;;;;;;10411548;28;20206;-78
2022/04/19 16:05:50;;;;;;;4.00;3.70;;;17.50;57.80;;;;;;10409579;28;20248;-80
2022/04/19 16:10:54;;;;;;;4.47;3.30;;;17.40;59.70;;;;;;10414767;28;20206;-80
2022/04/19 16:23:20;;;;;;;4.53;4.00;;;17.30;62.90;;;;;;10424979;28;20214;-80
2022/04/19 16:26:40;;;;;;;3.93;3.63;;;17.10;57.60;;;;;;10370330;28;20244;-81
2022/04/19 16:31:43;;;;;;;4.10;3.80;;;17.00;58.40;;;;;;10404782;28;20634;-80
2022/04/19 16:36:45;;;;;;;3.10;2.90;;;16.90;60.00;;;;;;10406480;28;20669;-80
2022/04/19 16:41:48;;;;;;;3.43;3.23;;;16.80;62.00;;;;;;10404102;28;20228;-79
2022/04/19 16:46:50;;;;;;;3.53;3.33;;;16.80;60.60;;;;;;10419333;28;20232;-80
2022/04/19 16:51:54;;;;;;;2.90;2.70;;;16.80;61.10;;;;;;10408774;28;20677;-80
2022/04/19 16:56:58;;;;;;;3.37;3.13;;;16.80;60.60;;;;;;10413911;28;20221;-80
2022/04/19 17:02:00;;;;;;;2.87;2.67;;;16.80;58.80;;;;;;10416824;28;20213;-82
2022/04/19 17:07:03;;;;;;;4.30;2.97;;;16.70;64.70;;;;;;10424140;28;20316;-81
2022/04/19 17:12:08;;;;;;;3.50;3.20;;;16.70;60.50;;;;;;10410856;28;20199;-81
2022/04/19 17:17:12;;;;;;;3.50;3.20;;;16.60;61.50;;;;;;10416198;28;20230;-80
2022/04/19 17:22:14;;;;;;;2.90;2.70;;;16.60;62.20;;;;;;10416771;28;20221;-80
2022/04/19 17:27:17;;;;;;;3.07;2.87;;;16.50;68.10;;;;;;10409605;28;20725;-81
2022/04/19 17:32:20;;;;;;;3.43;3.13;;;16.50;66.70;;;;;;10396524;28;20331;-79
2022/04/19 17:37:22;;;;;;;2.87;2.67;;;16.40;71.10;;;;;;10411423;28;20299;-80
2022/04/19 17:42:28;;;;;;;3.63;3.30;;;16.30;69.40;;;;;;10416537;28;20224;-80
2022/04/19 17:47:30;;;;;;;3.50;3.20;;;16.20;65.30;;;;;;10415310;28;20208;-80
2022/04/19 17:57:54;;;;;;;2.40;2.30;;;16.10;71.40;;;;;;10411962;28;20197;-80
2022/04/19 18:02:57;;;;;;;3.03;2.90;;;16.00;73.40;;;;;;10403510;28;20233;-80
2022/04/19 18:07:59;;;;;;;3.50;3.30;;;15.90;69.40;;;;;;10414953;28;20220;-80
2022/04/19 18:13:03;;;;;;;3.77;3.17;;;15.90;75.50;;;;;;10413633;28;20568;-80
2022/04/19 18:18:05;;;;;;;2.93;2.73;;;15.70;73.40;;;;;;10414595;28;20229;-80
2022/04/19 18:28:28;;;;;;;3.80;3.57;;;15.70;66.70;;;;;;10415435;28;20212;-80
2022/04/19 18:33:31;;;;;;;6.33;5.70;;;15.60;67.40;;;;;;10416005;28;20647;-80
2022/04/19 18:38:34;;;;;;;6.00;4.67;;;15.50;66.70;;;;;;10415994;28;20198;-80
2022/04/19 18:43:38;;;;;;;4.20;3.80;;;15.40;67.70;;;;;;10419784;28;20292;-80
2022/04/19 18:48:41;;;;;;;3.63;3.43;;;15.30;70.00;;;;;;10428502;28;20204;-81
2022/04/19 18:53:43;;;;;;;3.90;3.50;;;15.20;73.10;;;;;;10391179;28;20214;-80
2022/04/19 18:58:47;;;;;;;3.00;2.80;;;15.10;76.20;;;;;;10409316;28;20198;-81
2022/04/19 19:03:49;;;;;;;3.60;3.30;;;15.10;77.20;;;;;;10394909;28;20333;-81
2022/04/19 19:08:51;;;;;;;2.77;2.57;;;14.90;77.80;;;;;;10412967;28;20292;-81
2022/04/19 19:13:55;;;;;;;3.77;3.47;;;14.90;79.40;;;;;;10410359;28;20214;-80
2022/04/19 19:18:57;;;;;;;4.93;4.23;;;14.80;80.80;;;;;;10413605;28;20206;-80
2022/04/19 19:24:00;;;;;;;7.30;4.20;;;14.80;80.30;;;;;;10412674;28;20736;-80
2022/04/19 19:29:06;;;;;;;6.27;5.53;;;14.70;80.20;;;;;;10410257;28;20293;-81
2022/04/19 19:34:11;;;;;;;7.50;6.80;;;14.70;80.00;;;;;;10402850;28;20223;-80
2022/04/19 19:39:15;;;;;;;5.37;4.37;;;14.60;79.20;;;;;;10403360;28;20313;-80
2022/04/19 19:44:19;;;;;;;3.93;3.70;;;14.60;78.00;;;;;;10396338;28;20288;-79
2022/04/19 19:49:22;;;;;;;3.80;3.50;;;14.60;76.80;;;;;;10407983;28;20201;-80
2022/04/19 19:54:24;;;;;;;3.17;2.97;;;14.50;75.80;;;;;;10396589;28;20214;-81
2022/04/19 19:59:28;;;;;;;3.40;3.10;;;14.50;76.70;;;;;;10394979;28;20205;-79
2022/04/19 20:04:31;;;;;;;3.27;3.07;;;14.40;77.00;;;;;;10400479;28;20344;-78
2022/04/19 20:09:33;;;;;;;6.67;4.60;;;14.40;77.90;;;;;;10403804;28;20282;-78
2022/04/19 20:14:37;;;;;;;3.47;3.27;;;14.30;77.30;;;;;;10405803;28;20221;-79
2022/04/19 20:19:39;;;;;;;4.07;3.77;;;14.30;77.40;;;;;;10402857;28;20732;-79
2022/04/19 20:24:41;;;;;;;3.40;3.10;;;14.20;79.10;;;;;;10388940;28;20304;-79
2022/04/19 20:29:46;;;;;;;3.57;3.27;;;14.20;72.80;;;;;;10407464;28;20642;-78
2022/04/19 20:34:48;;;;;;;3.07;2.80;;;14.20;73.30;;;;;;10385614;28;20237;-80
2022/04/19 20:39:50;;;;;;;3.17;3.00;;;14.20;74.70;;;;;;10401224;28;20202;-79
2022/04/19 20:44:54;;;;;;;3.00;2.90;;;14.10;73.80;;;;;;10407061;28;20304;-79
2022/04/19 20:50:08;;;;;;;4.07;3.67;;;14.10;76.20;;;;;;10408034;28;20275;-79
2022/04/19 20:55:12;;;;;;;3.77;3.43;;;14.10;74.60;;;;;;10400706;28;20252;-78
2022/04/19 21:00:19;;;;;;;4.00;3.60;;;14.00;72.30;;;;;;10405816;28;20570;-79
2022/04/19 21:05:23;;;;;;;3.70;3.50;;;14.00;69.50;;;;;;10402795;28;20225;-79
2022/04/19 21:10:25;;;;;;;3.77;3.57;;;14.00;73.10;;;;;;10400523;28;20202;-80
2022/04/19 21:15:29;;;;;;;4.20;3.90;;;13.90;67.80;;;;;;10401923;28;20908;-78
2022/04/19 21:20:31;;;;;;;3.70;3.47;;;13.90;72.40;;;;;;10410619;28;20252;-79
2022/04/19 21:25:33;;;;;;;4.97;3.40;;;13.80;71.50;;;;;;10398797;28;20214;-78
2022/04/19 21:30:37;;;;;;;4.67;3.30;;;13.80;72.00;;;;;;10411493;28;20658;-78
2022/04/19 21:35:40;;;;;;;3.53;3.00;;;13.70;73.30;;;;;;10408413;28;20302;-78
2022/04/19 21:40:42;;;;;;;3.50;3.30;;;13.70;72.80;;;;;;10412770;28;20634;-79
2022/04/19 21:45:45;;;;;;;3.40;3.20;;;13.60;72.40;;;;;;10412334;28;20291;-79
2022/04/19 21:50:50;;;;;;;3.13;2.93;;;13.50;72.00;;;;;;10416465;28;20650;-78
2022/04/19 21:55:53;;;;;;;3.57;3.27;;;13.50;71.20;;;;;;10414260;28;20283;-78
2022/04/19 22:01:16;;;;;;;3.93;3.63;;;13.40;73.40;;;;;;10416924;28;20319;-80
2022/04/19 22:06:35;;;;;;;4.90;4.30;;;13.40;73.30;;;;;;10468991;23;20288;-85
2022/04/19 22:11:38;;;;;;;3.57;3.37;;;13.30;72.20;;;;;;10493300;28;20268;-84
2022/04/19 22:16:44;;;;;;;3.50;3.20;;;13.30;70.80;;;;;;10500731;23;20225;-86
2022/04/19 22:21:51;;;;;;;3.00;2.90;;;13.20;68.80;;;;;;10444144;28;20205;-85
2022/04/19 22:26:53;;;;;;;3.90;3.60;;;13.10;70.70;;;;;;10456595;28;20218;-83
2022/04/19 22:31:56;;;;;;;3.70;3.40;;;13.00;70.00;;;;;;10476026;28;20190;-84
2022/04/19 22:36:58;;;;;;;3.10;2.90;;;12.80;71.70;;;;;;10444978;28;20218;-83
2022/04/19 22:42:01;;;;;;;3.40;3.13;;;12.70;71.20;;;;;;10453869;28;20205;-83
2022/04/19 22:47:08;;;;;;;3.90;3.60;;;12.60;71.20;;;;;;10432775;28;20681;-83
2022/04/19 22:52:10;;;;;;;3.43;3.13;;;12.50;70.90;;;;;;10472224;28;20210;-83
2022/04/19 22:57:19;;;;;;;3.67;3.47;;;12.40;70.50;;;;;;10457789;28;20380;-84
2022/04/19 23:02:27;;;;;;;3.10;2.90;;;12.40;71.60;;;;;;10468925;28;20193;-85
2022/04/19 23:07:29;;;;;;;2.63;2.43;;;12.30;70.60;;;;;;10454273;28;20241;-84
2022/04/19 23:12:31;;;;;;;4.47;2.80;;;12.30;71.60;;;;;;10428733;28;20205;-84
2022/04/19 23:17:40;;;;;;;2.50;2.30;;;12.20;70.20;;;;;;10470759;28;20225;-85
2022/04/19 23:22:42;;;;;;;2.70;2.50;;;12.20;71.70;;;;;;10500293;28;20198;-84
2022/04/19 23:27:53;;;;;;;5.17;3.33;;;12.10;70.00;;;;;;10450128;28;20223;-83
2022/04/19 23:32:57;;;;;;;3.50;3.20;;;12.10;67.40;;;;;;10451650;28;20186;-84
2022/04/19 23:37:59;;;;;;;3.00;2.80;;;12.10;70.30;;;;;;10432416;28;20193;-83
2022/04/19 23:43:01;;;;;;;4.70;4.30;;;12.10;72.30;;;;;;10447755;28;20213;-83
2022/04/19 23:48:08;;;;;;;4.17;3.93;;;12.10;68.40;;;;;;10450639;28;20220;-83
2022/04/19 23:53:12;;;;;;;5.00;4.60;;;12.00;69.70;;;;;;10442312;28;20206;-84
2022/04/19 23:58:16;;;;;;;4.77;4.00;;;12.00;71.80;;;;;;10458801;28;20190;-84
